Time;durP1;ratioP1;P1;durP2;ratioP2;P2;SDS_P1;SDS_P2;PMS_P1;PMS_P2;Temp;Humidity;BMP_temperature;BMP_pressure;BME280_temperature;BME280_humidity;BME280_pressure;Samples;Min_cycle;Max_cycle;Signal;HPM_P1;HPM_P2
2023/06/17 00:00:09;;;;;;;5.60;2.40;;;;;22.40;101582.00;;;;5087136;28;20206;-79
2023/06/17 00:02:36;;;;;;;2.15;1.90;;;;;22.40;101583.00;;;;5085556;28;20198;-79
2023/06/17 00:05:07;;;;;;;3.35;2.28;;;;;22.30;101582.00;;;;5074829;28;20196;-80
2023/06/17 00:07:34;;;;;;;3.50;1.83;;;;;22.30;101582.00;;;;5086163;28;20221;-80
2023/06/17 00:10:02;;;;;;;3.05;2.47;;;;;22.20;101579.00;;;;5083859;28;20222;-80
2023/06/17 00:12:31;;;;;;;3.13;2.47;;;;;22.20;101582.00;;;;5085513;28;20201;-80
2023/06/17 00:15:01;;;;;;;3.05;2.15;;;;;22.20;101582.00;;;;5087803;28;20566;-79
2023/06/17 00:17:29;;;;;;;3.30;2.40;;;;;22.10;101585.00;;;;5087693;28;20208;-79
2023/06/17 00:19:58;;;;;;;5.53;2.85;;;;;22.10;101580.00;;;;5086835;28;20268;-79
2023/06/17 00:22:29;;;;;;;3.72;2.05;;;;;22.00;101579.00;;;;5085749;28;21000;-80
2023/06/17 00:24:57;;;;;;;3.05;2.35;;;;;22.00;101573.00;;;;5085398;28;20205;-79
2023/06/17 00:27:24;;;;;;;2.70;2.22;;;;;22.00;101564.00;;;;5069948;28;20579;-79
2023/06/17 00:29:52;;;;;;;2.60;2.28;;;;;21.90;101573.00;;;;5087341;28;20194;-79
2023/06/17 00:32:19;;;;;;;3.85;2.75;;;;;21.90;101565.00;;;;5084135;28;20233;-80
2023/06/17 00:34:47;;;;;;;3.55;2.75;;;;;21.90;101566.00;;;;5085828;28;20198;-79
2023/06/17 00:37:14;;;;;;;2.67;2.42;;;;;21.80;101566.00;;;;5087823;28;20201;-79
2023/06/17 00:39:43;;;;;;;3.70;2.38;;;;;21.80;101563.00;;;;5087735;28;20290;-80
2023/06/17 00:42:11;;;;;;;3.75;2.78;;;;;21.80;101561.00;;;;5081984;28;20226;-79
2023/06/17 00:44:39;;;;;;;3.00;2.70;;;;;21.70;101562.00;;;;5083609;28;20215;-79
2023/06/17 00:47:08;;;;;;;3.78;2.47;;;;;21.70;101561.00;;;;5088022;28;20198;-79
2023/06/17 00:49:37;;;;;;;3.65;2.67;;;;;21.60;101556.00;;;;5085837;28;20190;-79
2023/06/17 00:52:07;;;;;;;2.85;2.55;;;;;21.60;101547.00;;;;5087228;28;20564;-80
2023/06/17 00:54:37;;;;;;;2.90;2.38;;;;;21.60;101551.00;;;;5068090;28;20971;-79
2023/06/17 00:57:09;;;;;;;3.72;2.63;;;;;21.50;101544.00;;;;5075265;28;20191;-80
2023/06/17 00:59:39;;;;;;;3.05;2.58;;;;;21.50;101552.00;;;;5079960;28;20221;-79
2023/06/17 01:02:09;;;;;;;4.22;3.00;;;;;21.50;101553.00;;;;5085757;28;20218;-79
2023/06/17 01:04:38;;;;;;;3.42;2.50;;;;;21.40;101542.00;;;;5090634;28;20205;-79
2023/06/17 01:07:21;;;;;;;3.05;2.72;;;;;21.40;101543.00;;;;5091003;28;20214;-79
2023/06/17 01:09:55;;;;;;;2.88;2.60;;;;;21.30;101545.00;;;;5071413;28;20290;-80
2023/06/17 01:12:26;;;;;;;9.30;2.70;;;;;21.30;101542.00;;;;5085094;28;20225;-79
2023/06/17 01:14:57;;;;;;;3.38;2.70;;;;;21.30;101546.00;;;;5092111;28;20251;-79
2023/06/17 01:17:26;;;;;;;3.67;2.67;;;;;21.20;101542.00;;;;5087503;28;20240;-79
2023/06/17 01:19:54;;;;;;;3.05;2.70;;;;;21.20;101539.00;;;;5091999;28;20198;-79
2023/06/17 01:22:22;;;;;;;3.97;2.63;;;;;21.10;101546.00;;;;5090445;28;20218;-80
2023/06/17 01:24:52;;;;;;;2.67;2.47;;;;;21.10;101540.00;;;;5089672;28;20202;-80
2023/06/17 01:27:23;;;;;;;2.92;2.63;;;;;21.10;101545.00;;;;5091875;28;20193;-79
2023/06/17 01:29:50;;;;;;;2.72;2.50;;;;;21.00;101542.00;;;;5091174;28;20198;-80
2023/06/17 01:32:18;;;;;;;3.05;2.72;;;;;21.00;101539.00;;;;5083885;28;20223;-80
2023/06/17 01:34:52;;;;;;;3.13;2.53;;;;;20.90;101541.00;;;;5082506;28;20198;-79
2023/06/17 01:37:24;;;;;;;5.45;2.90;;;;;20.90;101540.00;;;;5091094;28;20201;-80
2023/06/17 01:39:57;;;;;;;3.38;2.55;;;;;20.80;101533.00;;;;5090099;28;20285;-79
2023/06/17 01:42:32;;;;;;;4.55;3.13;;;;;20.80;101539.00;;;;5089234;28;20230;-79
2023/06/17 01:45:03;;;;;;;2.92;2.55;;;;;20.80;101539.00;;;;5089717;28;20198;-79
2023/06/17 01:47:30;;;;;;;10.63;2.70;;;;;20.70;101530.00;;;;5088153;28;20681;-80
2023/06/17 01:50:00;;;;;;;3.90;2.72;;;;;20.70;101532.00;;;;5088353;28;21084;-79
2023/06/17 01:52:28;;;;;;;3.50;2.83;;;;;20.70;101535.00;;;;5091304;28;20206;-79
2023/06/17 01:54:58;;;;;;;3.17;2.67;;;;;20.60;101531.00;;;;5083879;28;20191;-79
2023/06/17 01:57:26;;;;;;;3.60;2.92;;;;;20.60;101536.00;;;;5079468;28;22082;-79
2023/06/17 01:59:54;;;;;;;3.88;2.45;;;;;20.60;101526.00;;;;5082774;28;20239;-79
2023/06/17 02:02:21;;;;;;;2.58;2.38;;;;;20.50;101530.00;;;;5085056;28;20230;-80
2023/06/17 02:04:50;;;;;;;3.58;2.88;;;;;20.50;101529.00;;;;5083508;28;20194;-79
2023/06/17 02:07:18;;;;;;;3.83;3.10;;;;;20.50;101530.00;;;;5080999;28;20329;-80
2023/06/17 02:09:46;;;;;;;2.83;2.53;;;;;20.40;101532.00;;;;5082608;28;20198;-80
2023/06/17 02:12:15;;;;;;;3.25;2.95;;;;;20.40;101537.00;;;;5082391;28;20202;-79
2023/06/17 02:14:42;;;;;;;4.78;2.67;;;;;20.40;101533.00;;;;5081101;28;20194;-79
2023/06/17 02:17:11;;;;;;;3.67;2.80;;;;;20.30;101527.00;;;;5082392;28;20205;-79
2023/06/17 02:19:39;;;;;;;3.13;2.80;;;;;20.30;101531.00;;;;5083618;28;20263;-79
2023/06/17 02:22:07;;;;;;;3.35;3.05;;;;;20.30;101529.00;;;;5079771;28;20215;-79
2023/06/17 02:24:34;;;;;;;3.70;3.13;;;;;20.20;101522.00;;;;5083542;28;20213;-79
2023/06/17 02:27:02;;;;;;;3.35;2.72;;;;;20.20;101524.00;;;;5082698;28;20668;-80
2023/06/17 02:29:30;;;;;;;3.47;2.88;;;;;20.20;101525.00;;;;5081942;28;20244;-79
2023/06/17 02:31:58;;;;;;;4.13;3.03;;;;;20.20;101516.00;;;;5081070;28;20227;-80
2023/06/17 02:34:25;;;;;;;3.08;2.80;;;;;20.10;101525.00;;;;5078065;28;20680;-80
2023/06/17 02:36:56;;;;;;;3.83;2.90;;;;;20.10;101516.00;;;;5078249;28;20187;-80
2023/06/17 02:39:23;;;;;;;3.20;2.90;;;;;20.10;101511.00;;;;5070050;28;20270;-79
2023/06/17 02:41:51;;;;;;;3.75;2.90;;;;;20.10;101512.00;;;;5071158;28;20260;-79
2023/06/17 02:44:18;;;;;;;5.72;2.65;;;;;20.00;101516.00;;;;5087633;28;20198;-79
2023/06/17 02:46:47;;;;;;;3.78;3.38;;;;;20.00;101518.00;;;;5088084;28;20217;-79
2023/06/17 02:49:14;;;;;;;3.90;3.00;;;;;20.00;101519.00;;;;5086436;28;20198;-79
2023/06/17 02:51:42;;;;;;;4.00;2.75;;;;;19.90;101515.00;;;;5080742;28;20199;-79
2023/06/17 02:54:10;;;;;;;3.42;3.10;;;;;19.90;101510.00;;;;5086972;28;20202;-79
2023/06/17 02:56:37;;;;;;;4.25;3.45;;;;;19.90;101510.00;;;;5088811;28;20194;-79
2023/06/17 02:59:08;;;;;;;3.72;3.40;;;;;19.90;101509.00;;;;5082299;28;20199;-79
2023/06/17 03:01:41;;;;;;;3.90;3.30;;;;;19.80;101497.00;;;;5087293;28;20222;-80
2023/06/17 03:04:10;;;;;;;2.85;2.63;;;;;19.80;101507.00;;;;5089641;28;20556;-79
2023/06/17 03:06:40;;;;;;;3.55;3.08;;;;;19.80;101505.00;;;;5088477;28;20226;-80
2023/06/17 03:09:08;;;;;;;4.75;3.00;;;;;19.80;101498.00;;;;5077636;28;20591;-80
2023/06/17 03:11:36;;;;;;;3.67;3.05;;;;;19.70;101501.00;;;;5077435;28;20214;-79
2023/06/17 03:14:03;;;;;;;3.20;2.90;;;;;19.70;101502.00;;;;5079947;28;20190;-79
2023/06/17 03:16:33;;;;;;;3.33;3.03;;;;;19.70;101497.00;;;;5084804;28;20193;-79
2023/06/17 03:19:01;;;;;;;3.55;2.83;;;;;19.70;101498.00;;;;5087195;28;20213;-79
2023/06/17 03:21:30;;;;;;;11.88;3.28;;;;;19.70;101502.00;;;;5088711;28;20317;-80
2023/06/17 03:23:58;;;;;;;3.55;3.15;;;;;19.70;101505.00;;;;5088212;28;20202;-79
2023/06/17 03:26:26;;;;;;;3.20;2.67;;;;;19.70;101504.00;;;;5088021;28;20239;-79
2023/06/17 03:28:54;;;;;;;3.42;2.97;;;;;19.60;101499.00;;;;5089502;28;20211;-80
2023/06/17 03:31:21;;;;;;;4.00;3.30;;;;;19.60;101495.00;;;;5090072;28;20221;-80
2023/06/17 03:33:51;;;;;;;3.80;3.10;;;;;19.60;101497.00;;;;5085581;28;20198;-79
2023/06/17 03:36:19;;;;;;;3.30;3.00;;;;;19.60;101497.00;;;;5089791;28;20202;-79
2023/06/17 03:38:48;;;;;;;3.20;2.75;;;;;19.60;101494.00;;;;5088429;28;20206;-80
2023/06/17 03:41:15;;;;;;;3.97;3.10;;;;;19.60;101492.00;;;;5088619;28;20198;-79
2023/06/17 03:43:42;;;;;;;3.60;2.90;;;;;19.50;101498.00;;;;5088780;28;20194;-79
2023/06/17 03:46:09;;;;;;;5.32;3.30;;;;;19.50;101499.00;;;;5088149;28;20197;-80
2023/06/17 03:48:37;;;;;;;4.00;3.00;;;;;19.50;101494.00;;;;5087596;28;20190;-79
2023/06/17 03:51:04;;;;;;;4.93;3.78;;;;;19.50;101494.00;;;;5088382;28;20202;-79
2023/06/17 03:53:31;;;;;;;4.97;3.17;;;;;19.60;101497.00;;;;5088724;28;20201;-79
2023/06/17 03:56:00;;;;;;;4.60;3.30;;;;;19.50;101493.00;;;;5088218;28;20198;-79
2023/06/17 03:58:28;;;;;;;4.47;4.03;;;;;19.50;101490.00;;;;5084962;28;20198;-79
2023/06/17 04:00:56;;;;;;;3.95;3.42;;;;;19.50;101491.00;;;;5084196;28;20202;-79
2023/06/17 04:03:26;;;;;;;4.40;3.50;;;;;19.60;101488.00;;;;5086836;28;20724;-79
2023/06/17 04:05:54;;;;;;;3.50;3.20;;;;;19.60;101489.00;;;;5086966;28;20201;-79
2023/06/17 04:08:22;;;;;;;3.85;3.20;;;;;19.60;101494.00;;;;5082001;28;20591;-80
2023/06/17 04:10:49;;;;;;;4.90;3.50;;;;;19.60;101490.00;;;;5089697;28;20198;-80
2023/06/17 04:13:18;;;;;;;3.97;3.33;;;;;19.60;101489.00;;;;5089573;28;20687;-80
2023/06/17 04:15:46;;;;;;;3.67;3.08;;;;;19.70;101494.00;;;;5087371;28;20199;-79
2023/06/17 04:18:14;;;;;;;3.97;3.58;;;;;19.70;101493.00;;;;5088276;28;20202;-79
2023/06/17 04:20:41;;;;;;;4.10;3.35;;;;;19.70;101494.00;;;;5085553;28;20202;-79
2023/06/17 04:23:09;;;;;;;4.15;3.75;;;;;19.80;101494.00;;;;5085630;28;20237;-79
2023/06/17 04:25:36;;;;;;;4.25;3.85;;;;;19.80;101500.00;;;;5078007;28;20698;-79
2023/06/17 04:28:06;;;;;;;4.03;3.50;;;;;19.80;101503.00;;;;5089054;28;20294;-79
2023/06/17 04:30:37;;;;;;;4.70;3.67;;;;;19.90;101506.00;;;;5084000;28;20913;-80
2023/06/17 04:33:05;;;;;;;4.22;3.15;;;;;19.90;101499.00;;;;5074227;28;20645;-79
2023/06/17 04:35:32;;;;;;;4.35;3.65;;;;;20.00;101505.00;;;;5086544;28;20727;-79
2023/06/17 04:38:02;;;;;;;5.68;3.28;;;;;20.00;101506.00;;;;5089240;28;20191;-80
2023/06/17 04:40:31;;;;;;;4.60;4.10;;;;;20.10;101494.00;;;;5083760;28;20201;-80
2023/06/17 04:42:59;;;;;;;4.78;4.30;;;;;20.10;101504.00;;;;5085427;28;20228;-79
2023/06/17 04:45:27;;;;;;;4.68;3.83;;;;;20.10;101496.00;;;;5075803;28;20229;-80
2023/06/17 04:47:56;;;;;;;5.95;4.55;;;;;20.20;101495.00;;;;5072703;28;20248;-80
2023/06/17 04:50:24;;;;;;;5.20;4.25;;;;;20.30;101495.00;;;;5080025;28;20206;-79
2023/06/17 04:52:52;;;;;;;5.07;4.57;;;;;20.30;101488.00;;;;5087058;28;20210;-79
2023/06/17 04:55:21;;;;;;;4.80;3.85;;;;;20.40;101494.00;;;;5087835;28;20247;-80
2023/06/17 04:57:48;;;;;;;6.38;4.63;;;;;20.50;101492.00;;;;5080257;28;20206;-79
2023/06/17 05:00:16;;;;;;;5.47;4.97;;;;;20.60;101488.00;;;;5086108;28;20202;-79
2023/06/17 05:02:43;;;;;;;5.97;4.07;;;;;20.70;101493.00;;;;5077913;28;20222;-80
2023/06/17 05:05:12;;;;;;;5.45;4.22;;;;;20.70;101488.00;;;;5081140;28;20194;-79
2023/06/17 05:07:39;;;;;;;4.70;3.88;;;;;20.80;101488.00;;;;5074612;28;20210;-79
2023/06/17 05:10:08;;;;;;;5.18;4.00;;;;;20.90;101482.00;;;;5078434;28;20190;-80
2023/06/17 05:12:35;;;;;;;4.93;4.25;;;;;21.00;101488.00;;;;5079059;28;20203;-80
2023/06/17 05:15:03;;;;;;;7.57;4.63;;;;;21.10;101497.00;;;;5081561;28;20190;-80
2023/06/17 05:17:30;;;;;;;6.05;4.95;;;;;21.20;101497.00;;;;5085439;28;20667;-80
2023/06/17 05:19:57;;;;;;;4.75;4.35;;;;;21.30;101500.00;;;;5086609;28;20201;-80
2023/06/17 05:22:26;;;;;;;6.03;4.78;;;;;21.40;101495.00;;;;5086445;28;20226;-80
2023/06/17 05:24:53;;;;;;;6.68;5.20;;;;;21.50;101498.00;;;;5079323;28;20206;-81
2023/06/17 05:27:20;;;;;;;6.30;4.95;;;;;21.60;101501.00;;;;5079686;28;20186;-79
2023/06/17 05:29:48;;;;;;;6.47;5.75;;;;;21.70;101500.00;;;;5081550;28;20189;-81
2023/06/17 05:32:15;;;;;;;10.43;5.22;;;;;21.90;101499.00;;;;5080218;28;20237;-81
2023/06/17 05:34:42;;;;;;;5.68;5.07;;;;;22.00;101504.00;;;;5079849;28;20203;-81
2023/06/17 05:37:10;;;;;;;8.63;5.55;;;;;22.10;101497.00;;;;5079328;28;20197;-81
2023/06/17 05:39:38;;;;;;;8.15;4.97;;;;;22.20;101497.00;;;;5078170;28;20203;-80
2023/06/17 05:42:06;;;;;;;6.93;5.78;;;;;22.30;101495.00;;;;5084043;28;20203;-80
2023/06/17 05:44:34;;;;;;;6.18;5.40;;;;;22.40;101501.00;;;;5087078;28;20212;-81
2023/06/17 05:47:01;;;;;;;6.80;5.13;;;;;22.50;101507.00;;;;5085930;28;20190;-82
2023/06/17 05:49:28;;;;;;;6.45;5.82;;;;;22.60;101506.00;;;;5077273;28;20222;-80
2023/06/17 05:51:55;;;;;;;6.75;5.60;;;;;22.70;101504.00;;;;5089747;28;20209;-79
2023/06/17 05:54:23;;;;;;;6.70;5.68;;;;;22.80;101507.00;;;;5089738;28;22151;-79
2023/06/17 05:56:51;;;;;;;6.60;5.47;;;;;22.90;101508.00;;;;5085048;28;20198;-79
2023/06/17 05:59:19;;;;;;;6.38;5.53;;;;;23.00;101505.00;;;;5087666;28;20213;-79
2023/06/17 06:01:46;;;;;;;10.48;6.10;;;;;23.10;101508.00;;;;5087872;28;20679;-80
2023/06/17 06:04:13;;;;;;;6.38;5.78;;;;;23.20;101504.00;;;;5084856;28;20237;-80
2023/06/17 06:06:41;;;;;;;6.18;5.50;;;;;23.30;101501.00;;;;5078856;28;20252;-82
2023/06/17 06:09:08;;;;;;;6.90;5.53;;;;;23.40;101506.00;;;;5085236;28;20197;-79
2023/06/17 06:11:35;;;;;;;9.20;5.38;;;;;23.50;101502.00;;;;5075829;28;20653;-79
2023/06/17 06:14:04;;;;;;;7.18;5.45;;;;;23.60;101501.00;;;;5081046;28;20202;-80
2023/06/17 06:16:32;;;;;;;5.90;4.93;;;;;23.70;101501.00;;;;5080599;28;20216;-80
2023/06/17 06:19:00;;;;;;;4.93;4.43;;;;;23.80;101513.00;;;;5085769;28;20190;-81
2023/06/17 06:21:27;;;;;;;5.05;4.55;;;;;23.90;101502.00;;;;5086986;28;20209;-81
2023/06/17 06:23:54;;;;;;;6.75;4.35;;;;;24.00;101502.00;;;;5087571;28;20226;-80
2023/06/17 06:26:22;;;;;;;4.88;4.28;;;;;24.10;101505.00;;;;5089778;28;20208;-81
2023/06/17 06:28:50;;;;;;;9.10;4.90;;;;;24.20;101507.00;;;;5088955;28;20266;-80
2023/06/17 06:31:18;;;;;;;3.80;3.40;;;;;24.30;101506.00;;;;5088604;28;20241;-80
2023/06/17 06:33:46;;;;;;;3.60;3.25;;;;;24.40;101503.00;;;;5084556;28;20225;-81
2023/06/17 06:36:13;;;;;;;6.00;3.75;;;;;24.40;101499.00;;;;5085882;28;20725;-80
2023/06/17 06:38:41;;;;;;;3.75;3.08;;;;;24.50;101504.00;;;;5092038;28;20213;-81
2023/06/17 06:41:09;;;;;;;13.95;4.03;;;;;24.60;101500.00;;;;5080978;28;20198;-80
2023/06/17 06:43:36;;;;;;;4.57;3.72;;;;;24.70;101498.00;;;;5088013;28;20226;-81
2023/06/17 06:46:04;;;;;;;4.78;3.90;;;;;24.70;101502.00;;;;5078962;28;20198;-80
2023/06/17 06:48:33;;;;;;;5.28;2.83;;;;;24.80;101504.00;;;;5088673;28;20199;-80
2023/06/17 06:51:01;;;;;;;4.05;3.65;;;;;25.00;101501.00;;;;5089346;28;20224;-81
2023/06/17 06:53:28;;;;;;;3.30;2.88;;;;;25.10;101502.00;;;;5077217;28;20241;-79
2023/06/17 06:55:56;;;;;;;5.00;3.28;;;;;25.20;101506.00;;;;5088660;28;20217;-80
2023/06/17 06:58:25;;;;;;;3.65;3.35;;;;;25.30;101504.00;;;;5088337;28;20198;-79
2023/06/17 07:00:52;;;;;;;3.42;3.05;;;;;25.40;101503.00;;;;5079190;28;20195;-79
2023/06/17 07:03:20;;;;;;;6.55;3.00;;;;;25.50;101508.00;;;;5090062;28;20226;-80
2023/06/17 07:05:48;;;;;;;4.07;3.20;;;;;25.60;101503.00;;;;5087008;28;20285;-81
2023/06/17 07:08:16;;;;;;;3.22;2.92;;;;;25.70;101501.00;;;;5089126;28;20210;-80
2023/06/17 07:10:43;;;;;;;4.53;2.80;;;;;25.80;101511.00;;;;5089463;28;20205;-80
2023/06/17 07:13:10;;;;;;;3.58;3.00;;;;;25.80;101511.00;;;;5086819;28;20203;-79
2023/06/17 07:15:38;;;;;;;3.75;3.33;;;;;25.90;101497.00;;;;5085900;28;20198;-79
2023/06/17 07:18:05;;;;;;;4.43;3.17;;;;;26.00;101503.00;;;;5090590;28;20552;-78
2023/06/17 07:20:32;;;;;;;3.55;2.78;;;;;26.10;101499.00;;;;5085302;28;20198;-78
2023/06/17 07:23:01;;;;;;;2.70;2.50;;;;;26.20;101504.00;;;;5086992;28;20222;-76
2023/06/17 07:25:28;;;;;;;4.10;3.05;;;;;26.30;101509.00;;;;5077680;28;20198;-79
2023/06/17 07:27:59;;;;;;;3.25;2.95;;;;;26.40;101509.00;;;;5085073;28;20194;-77
2023/06/17 07:30:27;;;;;;;3.97;2.95;;;;;26.50;101512.00;;;;5079167;28;20698;-76
2023/06/17 07:32:55;;;;;;;4.03;3.10;;;;;26.60;101507.00;;;;5085269;28;20241;-76
2023/06/17 07:35:22;;;;;;;4.35;3.50;;;;;26.70;101507.00;;;;5086457;28;20198;-76
2023/06/17 07:37:52;;;;;;;2.97;2.67;;;;;26.80;101502.00;;;;5086675;28;20199;-75
2023/06/17 07:40:21;;;;;;;3.55;2.72;;;;;26.90;101506.00;;;;5086139;28;20201;-76
2023/06/17 07:42:48;;;;;;;5.88;3.17;;;;;27.10;101498.00;;;;5084263;28;20226;-76
2023/06/17 07:45:15;;;;;;;3.10;2.80;;;;;27.20;101496.00;;;;5085981;28;20195;-75
2023/06/17 07:47:43;;;;;;;4.03;3.40;;;;;27.30;101503.00;;;;5082686;28;20385;-76
2023/06/17 07:50:11;;;;;;;3.70;3.28;;;;;27.40;101499.00;;;;5083789;28;20202;-75
2023/06/17 07:52:38;;;;;;;3.25;2.95;;;;;27.50;101502.00;;;;5083750;28;20582;-76
2023/06/17 07:55:08;;;;;;;3.67;3.25;;;;;27.60;101498.00;;;;5086482;28;20198;-76
2023/06/17 07:57:37;;;;;;;3.13;2.90;;;;;27.70;101495.00;;;;5080806;28;20202;-75
2023/06/17 08:00:09;;;;;;;3.40;3.00;;;;;27.80;101502.00;;;;5084124;28;20579;-76
2023/06/17 08:02:37;;;;;;;3.00;2.55;;;;;28.00;101500.00;;;;5086383;28;20689;-77
2023/06/17 08:05:04;;;;;;;3.40;3.08;;;;;28.10;101495.00;;;;5081807;28;20202;-77
2023/06/17 08:07:32;;;;;;;4.30;2.50;;;;;28.20;101495.00;;;;5084377;28;20247;-76
2023/06/17 08:09:59;;;;;;;3.22;2.92;;;;;28.30;101496.00;;;;5087988;28;20206;-76
2023/06/17 08:12:26;;;;;;;4.00;3.28;;;;;28.40;101503.00;;;;5076910;28;20213;-76
2023/06/17 08:14:55;;;;;;;3.72;2.92;;;;;28.50;101494.00;;;;5078951;28;20203;-76
2023/06/17 08:17:22;;;;;;;2.88;2.67;;;;;28.60;101497.00;;;;5077226;28;20195;-77
2023/06/17 08:19:49;;;;;;;3.35;3.05;;;;;28.80;101494.00;;;;5079899;28;20197;-76
2023/06/17 08:22:17;;;;;;;5.05;3.33;;;;;28.90;101494.00;;;;5077254;28;20209;-77
2023/06/17 08:24:44;;;;;;;4.05;2.90;;;;;29.00;101501.00;;;;5078113;28;20217;-76
2023/06/17 08:27:12;;;;;;;3.13;2.78;;;;;29.10;101498.00;;;;5078481;28;20191;-76
2023/06/17 08:29:39;;;;;;;3.42;2.80;;;;;29.20;101496.00;;;;5072708;28;20206;-76
2023/06/17 08:32:09;;;;;;;3.33;3.00;;;;;29.30;101496.00;;;;5075338;28;21010;-77
2023/06/17 08:34:36;;;;;;;3.80;2.67;;;;;29.40;101494.00;;;;5074249;28;20194;-76
2023/06/17 08:37:05;;;;;;;6.10;2.50;;;;;29.60;101494.00;;;;5075791;28;20676;-76
2023/06/17 08:39:32;;;;;;;3.22;2.78;;;;;29.70;101500.00;;;;5075799;28;20213;-76
2023/06/17 08:42:00;;;;;;;3.70;2.50;;;;;29.80;101496.00;;;;5078926;28;20208;-77
2023/06/17 08:44:29;;;;;;;3.60;2.83;;;;;30.00;101494.00;;;;5077327;28;20234;-77
2023/06/17 08:47:01;;;;;;;4.13;3.13;;;;;30.10;101491.00;;;;5076600;28;20209;-76
2023/06/17 08:49:30;;;;;;;4.63;2.67;;;;;30.20;101490.00;;;;5077787;28;20195;-76
2023/06/17 08:52:00;;;;;;;3.65;2.88;;;;;30.30;101495.00;;;;5078583;28;20276;-77
2023/06/17 08:54:29;;;;;;;3.72;3.35;;;;;30.40;101495.00;;;;5072726;28;20229;-77
2023/06/17 08:56:56;;;;;;;3.47;2.65;;;;;30.50;101494.00;;;;5076435;28;20601;-76
2023/06/17 08:59:24;;;;;;;3.10;2.80;;;;;30.60;101494.00;;;;5074897;28;20798;-75
2023/06/17 09:01:54;;;;;;;3.17;2.70;;;;;30.70;101499.00;;;;5065500;28;20213;-75
2023/06/17 09:04:23;;;;;;;3.28;2.95;;;;;30.80;101504.00;;;;5063388;28;20264;-77
2023/06/17 09:06:52;;;;;;;3.65;2.67;;;;;30.90;101500.00;;;;5079934;28;20253;-77
2023/06/17 09:09:20;;;;;;;3.45;2.95;;;;;31.00;101502.00;;;;5085347;28;20198;-74
2023/06/17 09:11:51;;;;;;;4.05;3.00;;;;;31.10;101502.00;;;;5086175;28;20194;-74
2023/06/17 09:14:19;;;;;;;3.72;2.80;;;;;31.30;101497.00;;;;5084565;28;20205;-76
2023/06/17 09:16:46;;;;;;;4.63;2.60;;;;;31.40;101498.00;;;;5086976;28;20217;-76
2023/06/17 09:19:14;;;;;;;2.97;2.67;;;;;31.60;101497.00;;;;5088146;28;20190;-77
2023/06/17 09:21:41;;;;;;;2.60;2.40;;;;;31.70;101505.00;;;;5088207;28;20198;-77
2023/06/17 09:24:10;;;;;;;3.55;2.58;;;;;31.80;101504.00;;;;5091119;28;20229;-76
2023/06/17 09:26:41;;;;;;;3.70;2.85;;;;;31.90;101500.00;;;;5090004;28;20206;-77
2023/06/17 09:29:11;;;;;;;4.10;2.60;;;;;32.00;101498.00;;;;5080724;28;20202;-77
2023/06/17 09:31:49;;;;;;;3.05;2.55;;;;;32.00;101498.00;;;;5086138;28;20257;-76
2023/06/17 09:34:17;;;;;;;2.53;2.33;;;;;32.10;101501.00;;;;5075771;28;20200;-76
2023/06/17 09:36:44;;;;;;;3.60;2.67;;;;;32.20;101500.00;;;;5082458;28;20226;-77
2023/06/17 09:39:14;;;;;;;2.78;2.38;;;;;32.30;101506.00;;;;5090259;28;20190;-78
2023/06/17 09:41:43;;;;;;;4.35;2.35;;;;;32.40;101502.00;;;;5088206;28;20209;-78
2023/06/17 09:44:11;;;;;;;2.03;1.83;;;;;32.50;101505.00;;;;5090035;28;20216;-78
2023/06/17 09:46:39;;;;;;;2.70;1.85;;;;;32.60;101500.00;;;;5085882;28;20201;-78
2023/06/17 09:49:12;;;;;;;2.40;2.00;;;;;32.60;101505.00;;;;5090779;28;20206;-78
2023/06/17 09:51:40;;;;;;;2.00;1.80;;;;;32.70;101497.00;;;;5080425;28;20198;-79
2023/06/17 09:54:08;;;;;;;3.58;1.80;;;;;32.80;101503.00;;;;5091223;28;20217;-79
2023/06/17 09:56:38;;;;;;;2.50;2.30;;;;;32.80;101500.00;;;;5088654;28;20190;-79
2023/06/17 09:59:07;;;;;;;1.85;1.70;;;;;32.90;101499.00;;;;5088995;28;20577;-80
2023/06/17 10:01:39;;;;;;;2.13;1.92;;;;;33.00;101502.00;;;;5086954;28;20194;-79
2023/06/17 10:04:08;;;;;;;6.95;2.15;;;;;33.00;101497.00;;;;5083592;28;20231;-79
2023/06/17 10:06:36;;;;;;;2.13;1.92;;;;;33.00;101500.00;;;;5090207;28;20205;-80
2023/06/17 10:09:07;;;;;;;2.83;2.10;;;;;33.00;101498.00;;;;5088698;28;20205;-80
2023/06/17 10:11:37;;;;;;;2.00;1.80;;;;;33.10;101495.00;;;;5087837;28;20682;-79
2023/06/17 10:14:08;;;;;;;2.72;2.28;;;;;33.10;101493.00;;;;5087833;28;20497;-80
2023/06/17 10:16:41;;;;;;;3.13;2.28;;;;;33.20;101494.00;;;;5083948;28;20675;-80
2023/06/17 10:19:11;;;;;;;2.63;2.35;;;;;33.20;101498.00;;;;5089552;28;20289;-79
2023/06/17 10:21:41;;;;;;;2.25;2.05;;;;;33.20;101494.00;;;;5074224;28;20207;-79
2023/06/17 10:24:10;;;;;;;2.20;1.70;;;;;33.30;101495.00;;;;5084310;28;20214;-81
2023/06/17 10:26:39;;;;;;;2.33;1.90;;;;;33.30;101489.00;;;;5087522;28;20727;-80
2023/06/17 10:29:08;;;;;;;2.58;2.03;;;;;33.40;101493.00;;;;5081113;28;20194;-78
2023/06/17 10:31:39;;;;;;;2.45;2.10;;;;;33.40;101487.00;;;;5087359;28;20703;-79
2023/06/17 10:34:08;;;;;;;4.55;2.08;;;;;33.50;101487.00;;;;5085072;28;20636;-79
2023/06/17 10:36:37;;;;;;;2.45;1.98;;;;;33.60;101483.00;;;;5088446;28;20220;-79
2023/06/17 10:39:10;;;;;;;5.93;2.38;;;;;33.60;101481.00;;;;5083868;28;20680;-79
2023/06/17 10:42:02;;;;;;;3.42;2.50;;;;;33.60;101474.00;;;;5080902;28;20186;-79
2023/06/17 10:44:42;;;;;;;2.17;1.98;;;;;33.60;101472.00;;;;5068734;28;20213;-77
2023/06/17 10:47:22;;;;;;;2.10;1.90;;;;;33.70;101465.00;;;;5089199;28;20201;-78
2023/06/17 10:49:52;;;;;;;2.25;2.05;;;;;33.80;101464.00;;;;5089290;28;20198;-75
2023/06/17 10:52:21;;;;;;;2.90;1.60;;;;;33.80;101466.00;;;;5089667;28;20263;-75
2023/06/17 10:54:53;;;;;;;2.28;1.90;;;;;33.80;101471.00;;;;5085823;28;20247;-74
2023/06/17 10:57:35;;;;;;;1.85;1.70;;;;;33.70;101471.00;;;;5090295;28;20186;-76
2023/06/17 11:00:08;;;;;;;5.22;1.98;;;;;33.80;101453.00;;;;5087745;28;20334;-76
2023/06/17 11:02:37;;;;;;;4.00;1.63;;;;;33.80;101453.00;;;;5089355;28;20643;-75
2023/06/17 11:05:05;;;;;;;3.25;1.65;;;;;33.90;101465.00;;;;5088156;28;20264;-75
2023/06/17 11:07:32;;;;;;;2.33;2.13;;;;;33.90;101452.00;;;;5087406;28;20222;-75
2023/06/17 11:09:59;;;;;;;2.45;1.88;;;;;33.90;101448.00;;;;5087544;28;20194;-75
2023/06/17 11:12:27;;;;;;;1.60;1.50;;;;;34.00;101449.00;;;;5085579;28;20205;-76
2023/06/17 11:14:59;;;;;;;3.63;2.03;;;;;34.00;101446.00;;;;5089166;28;20295;-76
2023/06/17 11:17:26;;;;;;;2.15;1.83;;;;;34.00;101444.00;;;;5087725;28;20591;-79
2023/06/17 11:19:54;;;;;;;2.72;2.00;;;;;34.00;101446.00;;;;5087314;28;20204;-78
2023/06/17 11:22:22;;;;;;;2.75;2.20;;;;;34.00;101436.00;;;;5089382;28;20225;-78
2023/06/17 11:24:49;;;;;;;2.55;1.90;;;;;34.00;101437.00;;;;5087491;28;20252;-78
2023/06/17 11:27:17;;;;;;;2.58;2.30;;;;;34.00;101430.00;;;;5071977;28;20208;-77
2023/06/17 11:29:44;;;;;;;2.10;1.80;;;;;34.00;101434.00;;;;5075522;28;20679;-76
2023/06/17 11:32:13;;;;;;;2.47;1.80;;;;;34.00;101430.00;;;;5087418;28;20885;-76
2023/06/17 11:34:42;;;;;;;2.05;1.85;;;;;34.00;101430.00;;;;5080241;28;20205;-76
2023/06/17 11:37:10;;;;;;;2.90;1.80;;;;;34.00;101431.00;;;;5084843;28;20198;-78
2023/06/17 11:39:39;;;;;;;4.03;2.00;;;;;34.00;101432.00;;;;5087182;28;20293;-78
2023/06/17 11:42:08;;;;;;;2.30;2.10;;;;;34.00;101425.00;;;;5088775;28;20198;-78
2023/06/17 11:44:37;;;;;;;3.47;2.17;;;;;34.10;101418.00;;;;5087963;28;20222;-77
2023/06/17 11:47:05;;;;;;;1.83;1.65;;;;;34.00;101420.00;;;;5083842;28;20208;-78
2023/06/17 11:49:34;;;;;;;2.13;1.77;;;;;34.00;101419.00;;;;5086215;28;20301;-78
2023/06/17 11:52:05;;;;;;;4.43;2.15;;;;;34.00;101414.00;;;;5092159;28;20198;-77
2023/06/17 11:54:32;;;;;;;2.53;1.70;;;;;34.10;101409.00;;;;5088257;28;20234;-77
2023/06/17 11:57:02;;;;;;;4.38;2.03;;;;;34.10;101406.00;;;;5088180;28;20198;-78
2023/06/17 11:59:31;;;;;;;2.13;1.92;;;;;34.10;101411.00;;;;5088026;28;20193;-78
2023/06/17 12:01:59;;;;;;;2.63;2.25;;;;;34.20;101402.00;;;;5083923;28;20194;-77
2023/06/17 12:04:28;;;;;;;2.30;2.10;;;;;34.20;101400.00;;;;5083495;28;20222;-77
2023/06/17 12:06:57;;;;;;;2.60;2.40;;;;;34.20;101402.00;;;;5086653;28;20194;-78
2023/06/17 12:09:24;;;;;;;2.80;1.70;;;;;34.30;101402.00;;;;5089141;28;20202;-77
2023/06/17 12:11:51;;;;;;;3.00;2.33;;;;;34.30;101403.00;;;;5084489;28;20194;-77
2023/06/17 12:14:21;;;;;;;2.33;2.00;;;;;34.30;101404.00;;;;5079015;28;20217;-78